Time;durP1;ratioP1;P1;durP2;ratioP2;P2;SDS_P1;SDS_P2;PMS_P1;PMS_P2;Temp;Humidity;BMP_temperature;BMP_pressure;BME280_temperature;BME280_humidity;BME280_pressure;Samples;Min_cycle;Max_cycle;Signal;HPM_P1;HPM_P2
2022/01/27 00:01:35;;;;;;;14.07;8.00;;;;;;;2.11;53.71;100510.06;3129361;28;20121;-62
2022/01/27 00:03:22;;;;;;;18.00;8.20;;;;;;;2.05;53.74;100506.63;3121743;28;20124;-62
2022/01/27 00:05:07;;;;;;;15.27;8.10;;;;;;;2.08;53.65;100516.06;3128101;28;20143;-62
2022/01/27 00:06:40;;;;;;;17.40;8.15;;;;;;;2.05;53.85;100516.91;3126033;28;20585;-62
2022/01/27 00:08:15;;;;;;;13.63;8.02;;;;;;;2.04;53.72;100504.94;3125729;28;20455;-61
2022/01/27 00:10:01;;;;;;;15.32;7.47;;;;;;;2.00;54.00;100508.34;3129783;28;20045;-62
2022/01/27 00:11:35;;;;;;;15.27;7.63;;;;;;;1.97;53.95;100510.91;3120450;28;20238;-62
2022/01/27 00:13:11;;;;;;;15.23;7.57;;;;;;;1.93;54.12;100504.06;3128310;28;20049;-62
2022/01/27 00:14:46;;;;;;;14.90;7.05;;;;;;;1.97;54.15;100517.75;3125099;28;20132;-62
2022/01/27 00:16:22;;;;;;;14.60;8.02;;;;;;;1.96;54.24;100524.63;3121328;28;20049;-62
2022/01/27 00:17:58;;;;;;;18.33;7.88;;;;;;;1.96;54.29;100526.31;3131448;28;20086;-62
2022/01/27 00:19:30;;;;;;;15.95;8.00;;;;;;;1.94;54.27;100525.47;3120972;28;20553;-61
2022/01/27 00:21:02;;;;;;;14.95;7.80;;;;;;;1.95;54.34;100529.72;3127555;28;20057;-61
2022/01/27 00:22:34;;;;;;;14.43;7.65;;;;;;;1.95;54.19;100525.47;3127509;28;20091;-61
2022/01/27 00:24:07;;;;;;;18.02;7.88;;;;;;;1.64;54.29;100469.78;3124356;28;20044;-62
2022/01/27 00:25:39;;;;;;;16.20;8.13;;;;;;;1.95;54.33;100528.03;3128506;28;20045;-61
2022/01/27 00:27:12;;;;;;;14.88;8.05;;;;;;;1.87;54.41;100501.47;3125807;28;20442;-61
2022/01/27 00:28:45;;;;;;;16.90;7.80;;;;;;;1.96;54.48;100521.19;3122956;28;20122;-62
2022/01/27 00:30:17;;;;;;;;;;;;;;;1.79;54.67;100519.44;3130264;28;20044;-61
2022/01/27 00:31:49;;;;;;;16.60;7.97;;;;;;;1.87;54.61;100521.19;3122693;28;20004;-61
2022/01/27 00:33:21;;;;;;;16.23;7.93;;;;;;;1.93;54.71;100522.03;3128123;28;20049;-62
2022/01/27 00:34:53;;;;;;;15.48;7.95;;;;;;;1.96;54.53;100522.03;3126501;28;20056;-61
2022/01/27 00:36:25;;;;;;;14.57;7.40;;;;;;;1.97;54.57;100517.75;3122236;28;20060;-61
2022/01/27 00:37:57;;;;;;;16.02;8.55;;;;;;;2.00;54.73;100512.63;3129261;28;20051;-61
2022/01/27 00:39:29;;;;;;;13.25;6.75;;;;;;;2.01;54.64;100504.94;3125565;28;20045;-61
2022/01/27 00:41:01;;;;;;;15.65;8.63;;;;;;;1.85;54.59;100480.06;3126388;28;20102;-62
2022/01/27 00:42:35;;;;;;;14.15;8.13;;;;;;;2.08;54.71;100503.22;3129558;28;20063;-61
2022/01/27 00:44:07;;;;;;;17.00;8.75;;;;;;;2.10;54.68;100498.06;3121303;28;20115;-62
2022/01/27 00:45:39;;;;;;;14.57;7.63;;;;;;;1.90;54.61;100475.81;3127050;28;20053;-62
2022/01/27 00:47:11;;;;;;;15.63;8.48;;;;;;;2.13;54.83;100501.50;3122746;28;20076;-62
2022/01/27 00:48:42;;;;;;;19.23;9.10;;;;;;;2.15;54.77;100501.50;3123116;28;20044;-62
2022/01/27 00:50:16;;;;;;;15.90;8.18;;;;;;;2.19;54.73;100498.06;3127240;28;20510;-62
2022/01/27 00:51:48;;;;;;;14.73;8.00;;;;;;;2.22;54.83;100500.66;3120291;28;20059;-62
2022/01/27 00:53:29;;;;;;;18.23;9.63;;;;;;;2.24;54.56;100502.34;3125410;28;20057;-62
2022/01/27 00:55:01;;;;;;;18.50;8.38;;;;;;;2.26;54.72;100502.38;3125038;28;20049;-62
2022/01/27 00:56:42;;;;;;;16.63;8.07;;;;;;;2.26;54.60;100500.66;3121275;28;20053;-62
2022/01/27 00:58:29;;;;;;;16.90;8.27;;;;;;;2.29;54.66;100504.94;3128811;28;20120;-62
2022/01/27 01:00:01;;;;;;;18.17;9.05;;;;;;;2.30;54.93;100503.22;3126162;28;20144;-62
2022/01/27 01:01:38;;;;;;;19.20;9.13;;;;;;;2.32;54.64;100494.66;3126203;28;20055;-62
2022/01/27 01:03:21;;;;;;;15.98;8.18;;;;;;;2.35;54.71;100504.06;3123890;28;20475;-62
2022/01/27 01:05:05;;;;;;;15.50;7.88;;;;;;;2.35;54.96;100494.66;3124907;28;20049;-62
2022/01/27 01:06:42;;;;;;;17.10;8.70;;;;;;;2.38;54.82;100493.78;3128334;28;20053;-62
2022/01/27 01:08:59;;;;;;;18.50;8.50;;;;;;;2.42;54.79;100496.34;3132056;28;20455;-62
2022/01/27 01:15:51;;;;;;;16.65;8.50;;;;;;;2.46;54.94;100480.06;3121980;28;20080;-62
2022/01/27 01:17:33;;;;;;;14.98;8.02;;;;;;;2.32;54.60;100450.97;3123608;28;20121;-62
2022/01/27 01:19:13;;;;;;;15.43;8.27;;;;;;;2.52;54.77;100480.94;3129315;28;20059;-62
2022/01/27 01:21:01;;;;;;;19.27;8.95;;;;;;;2.54;54.69;100480.06;3120263;28;20579;-62
2022/01/27 01:29:56;;;;;;;17.05;8.65;;;;;;;2.52;54.44;100468.09;3128559;28;20045;-62
2022/01/27 01:31:44;;;;;;;14.50;7.60;;;;;;;2.39;54.22;100439.78;3127836;28;20060;-62
2022/01/27 01:33:22;;;;;;;15.55;7.30;;;;;;;2.60;54.23;100467.19;3124193;28;20053;-62
2022/01/27 01:34:54;;;;;;;13.82;7.32;;;;;;;2.62;54.03;100467.19;3129011;28;20386;-62
2022/01/27 01:36:36;;;;;;;13.57;7.43;;;;;;;2.63;53.89;100467.22;3122115;28;20084;-62
2022/01/27 01:38:07;;;;;;;14.00;7.15;;;;;;;2.66;53.82;100468.88;3124698;28;20049;-61
2022/01/27 01:39:39;;;;;;;15.38;7.88;;;;;;;2.32;53.77;100411.56;3122153;28;20060;-62
2022/01/27 01:41:11;;;;;;;15.15;7.50;;;;;;;2.49;53.77;100435.53;3122732;28;20044;-62
2022/01/27 01:42:44;;;;;;;15.13;7.63;;;;;;;2.69;53.84;100468.88;3127955;28;20040;-62
2022/01/27 01:44:16;;;;;;;13.45;6.90;;;;;;;2.70;53.63;100465.47;3119910;28;20503;-62
2022/01/27 01:45:50;;;;;;;14.18;7.43;;;;;;;2.73;53.67;100461.16;3125779;28;20053;-62
2022/01/27 01:47:23;;;;;;;13.25;6.70;;;;;;;2.74;53.67;100464.59;3130294;28;20091;-62
2022/01/27 01:48:55;;;;;;;14.00;7.32;;;;;;;2.74;53.64;100465.44;3123102;28;20057;-62
2022/01/27 01:50:27;;;;;;;16.20;7.20;;;;;;;2.74;53.49;100464.59;3127962;28;20057;-62
2022/01/27 01:52:05;;;;;;;16.38;7.22;;;;;;;2.75;53.47;100466.28;3122060;28;20046;-61
2022/01/27 01:53:37;;;;;;;13.18;6.72;;;;;;;2.74;53.53;100462.88;3122982;28;20489;-62
2022/01/27 01:55:11;;;;;;;13.13;7.03;;;;;;;2.77;53.51;100464.56;3126974;28;20383;-62
2022/01/27 01:56:44;;;;;;;12.18;6.70;;;;;;;2.78;53.63;100465.44;3122734;28;20052;-62
2022/01/27 01:58:16;;;;;;;13.32;6.78;;;;;;;2.78;53.34;100460.28;3127111;28;20049;-62
2022/01/27 01:59:48;;;;;;;11.75;6.28;;;;;;;2.82;53.25;100465.44;3124742;28;20115;-62
2022/01/27 02:01:22;;;;;;;13.00;7.13;;;;;;;2.82;53.37;100464.59;3123327;28;20045;-62
2022/01/27 02:02:54;;;;;;;12.50;6.28;;;;;;;2.83;53.32;100456.00;3127454;28;20049;-62
2022/01/27 02:04:26;;;;;;;12.45;6.53;;;;;;;2.83;53.08;100458.56;3123500;28;20114;-62
2022/01/27 02:05:58;;;;;;;15.57;7.28;;;;;;;2.84;53.12;100456.00;3129604;28;20071;-62
2022/01/27 02:07:37;;;;;;;14.57;7.20;;;;;;;2.86;52.93;100451.69;3127949;28;20143;-62
2022/01/27 02:09:33;;;;;;;13.45;6.97;;;;;;;2.84;52.87;100453.44;3121793;28;20547;-62
2022/01/27 02:18:28;;;;;;;12.38;6.40;;;;;;;2.79;52.77;100452.59;3127084;28;20037;-61
2022/01/27 02:20:02;;;;;;;13.18;6.45;;;;;;;2.82;52.82;100446.56;3125165;28;20065;-61
2022/01/27 02:21:34;;;;;;;12.93;7.18;;;;;;;2.84;52.76;100457.69;3123165;28;20580;-62
2022/01/27 02:23:07;;;;;;;16.55;6.82;;;;;;;2.86;52.56;100443.97;3127168;28;20130;-61
2022/01/27 02:24:39;;;;;;;14.45;6.75;;;;;;;2.86;52.73;100456.84;3132798;28;20049;-62
2022/01/27 02:26:11;;;;;;;12.43;6.57;;;;;;;2.87;52.50;100452.53;3127346;28;20042;-61
2022/01/27 02:27:43;;;;;;;12.93;6.50;;;;;;;2.86;52.49;100449.13;3130291;28;20049;-61
2022/01/27 02:29:16;;;;;;;11.98;6.60;;;;;;;2.87;52.49;100452.53;3120084;28;20053;-61
2022/01/27 02:30:48;;;;;;;13.23;6.93;;;;;;;2.87;52.52;100447.38;3128024;28;20503;-61
2022/01/27 02:32:22;;;;;;;13.57;6.80;;;;;;;2.87;52.44;100453.41;3119905;28;20629;-62
2022/01/27 02:33:56;;;;;;;12.75;7.50;;;;;;;2.87;52.54;100445.69;3124090;28;20502;-61
2022/01/27 02:35:31;;;;;;;13.65;6.88;;;;;;;2.88;52.41;100451.69;3124513;28;20151;-61
2022/01/27 02:37:04;;;;;;;14.32;6.70;;;;;;;2.85;52.71;100450.00;3120528;28;20573;-61
2022/01/27 02:38:35;;;;;;;13.50;7.30;;;;;;;2.87;52.55;100450.84;3127044;28;20128;-61
2022/01/27 02:40:08;;;;;;;16.52;7.00;;;;;;;2.89;52.60;100455.97;3123581;28;20041;-61
2022/01/27 02:41:46;;;;;;;14.70;6.95;;;;;;;2.89;52.59;100448.25;3121592;28;20049;-61
2022/01/27 02:43:18;;;;;;;13.68;7.05;;;;;;;2.88;52.48;100449.97;3129358;28;20053;-61
2022/01/27 02:45:01;;;;;;;14.00;7.32;;;;;;;2.89;52.50;100451.69;3123330;28;20057;-62
2022/01/27 02:46:41;;;;;;;14.05;7.20;;;;;;;2.61;52.43;100402.06;3130324;28;20431;-62
2022/01/27 02:48:13;;;;;;;14.32;7.47;;;;;;;2.89;52.32;100451.69;3125021;28;20156;-62
2022/01/27 02:49:45;;;;;;;14.55;7.32;;;;;;;2.87;52.48;100450.84;3124569;28;20557;-62
2022/01/27 02:51:18;;;;;;;13.93;7.25;;;;;;;2.91;52.49;100452.53;3129732;28;20118;-62
2022/01/27 02:52:50;;;;;;;13.95;8.05;;;;;;;2.90;52.46;100450.00;3126353;28;20518;-62
2022/01/27 02:54:23;;;;;;;16.73;7.82;;;;;;;2.91;52.66;100449.13;3129317;28;20053;-62
2022/01/27 02:55:55;;;;;;;14.68;7.38;;;;;;;2.90;52.74;100450.84;3127903;28;20057;-62
2022/01/27 02:57:27;;;;;;;15.90;8.00;;;;;;;2.91;52.70;100444.81;3123309;28;20052;-62
2022/01/27 02:58:59;;;;;;;25.70;7.57;;;;;;;2.61;52.62;100393.50;3130409;28;20102;-62
2022/01/27 03:00:32;;;;;;;17.83;7.80;;;;;;;2.92;52.49;100446.53;3125458;28;20054;-62
2022/01/27 03:02:04;;;;;;;15.55;7.80;;;;;;;2.93;52.51;100445.69;3124055;28;20076;-62
2022/01/27 03:03:36;;;;;;;15.43;8.07;;;;;;;2.93;52.56;100447.41;3131159;28;20045;-62
2022/01/27 03:05:08;;;;;;;15.15;7.97;;;;;;;2.93;52.68;100447.41;3121850;28;20584;-62
2022/01/27 03:06:42;;;;;;;14.70;8.35;;;;;;;2.91;52.76;100444.81;3127664;28;20049;-62
2022/01/27 03:08:14;;;;;;;15.57;7.75;;;;;;;2.94;52.60;100446.53;3129534;28;20065;-62
2022/01/27 03:09:46;;;;;;;15.53;7.47;;;;;;;2.94;52.57;100444.81;3123067;28;20057;-62
2022/01/27 03:11:33;;;;;;;19.23;8.05;;;;;;;2.95;52.72;100441.34;3129255;28;20311;-62
2022/01/27 03:13:05;;;;;;;13.90;7.30;;;;;;;2.92;52.85;100438.81;3123819;28;20054;-62
2022/01/27 03:14:38;;;;;;;15.65;7.50;;;;;;;2.95;52.83;100443.09;3128592;28;20056;-62
2022/01/27 03:16:10;;;;;;;14.52;7.43;;;;;;;2.56;52.75;100374.66;3131022;28;20041;-62
2022/01/27 03:17:42;;;;;;;15.95;8.05;;;;;;;2.94;52.83;100441.38;3122472;28;20053;-62
2022/01/27 03:19:15;;;;;;;13.38;7.43;;;;;;;2.93;53.03;100437.97;3131087;28;20223;-62
2022/01/27 03:20:46;;;;;;;13.77;7.18;;;;;;;2.95;52.94;100435.38;3133106;28;20053;-62
2022/01/27 03:22:20;;;;;;;12.93;7.20;;;;;;;2.96;52.97;100439.66;3125760;28;20497;-62
2022/01/27 03:23:52;;;;;;;13.85;7.18;;;;;;;2.93;52.98;100437.97;3130516;28;20111;-62
2022/01/27 03:25:24;;;;;;;14.00;7.25;;;;;;;2.96;53.01;100437.09;3123236;28;20507;-62
2022/01/27 03:26:56;;;;;;;14.18;7.32;;;;;;;2.94;52.82;100434.50;3129684;28;20455;-62
2022/01/27 03:28:30;;;;;;;15.63;7.60;;;;;;;2.95;52.86;100438.78;3124021;28;20491;-62
2022/01/27 03:30:02;;;;;;;14.27;7.25;;;;;;;2.95;52.83;100441.34;3122562;28;20099;-62
2022/01/27 03:31:34;;;;;;;16.90;7.55;;;;;;;2.96;52.83;100437.94;3129370;28;20426;-62
2022/01/27 03:33:06;;;;;;;12.85;6.60;;;;;;;2.85;52.96;100416.53;3121055;28;20045;-62
2022/01/27 03:34:38;;;;;;;13.88;7.38;;;;;;;2.96;52.64;100443.09;3128868;28;20068;-62
2022/01/27 03:36:10;;;;;;;12.40;6.45;;;;;;;2.95;52.73;100436.22;3125780;28;20041;-62
2022/01/27 03:37:43;;;;;;;14.82;7.10;;;;;;;2.95;52.84;100432.78;3123529;28;20380;-62
2022/01/27 03:39:18;;;;;;;13.55;6.70;;;;;;;2.95;52.70;100430.22;3128757;28;20051;-62
2022/01/27 03:40:50;;;;;;;13.20;6.82;;;;;;;2.96;52.68;100431.94;3130807;28;20562;-62
2022/01/27 03:42:22;;;;;;;11.35;6.32;;;;;;;2.94;52.61;100434.50;3129849;28;20533;-62
2022/01/27 03:43:54;;;;;;;11.27;6.15;;;;;;;2.94;52.46;100423.38;3131685;28;20437;-62
2022/01/27 03:45:26;;;;;;;12.88;6.10;;;;;;;2.95;52.38;100436.22;3120906;28;20057;-62
2022/01/27 03:46:58;;;;;;;13.68;6.40;;;;;;;2.96;52.28;100442.25;3127901;28;20115;-62
2022/01/27 03:48:31;;;;;;;12.77;7.10;;;;;;;2.96;52.35;100443.09;3127858;28;20053;-62
2022/01/27 03:50:03;;;;;;;15.25;6.95;;;;;;;2.95;52.10;100436.22;3124409;28;20154;-62
2022/01/27 03:51:35;;;;;;;13.63;7.55;;;;;;;2.96;52.30;100442.25;3129909;28;20053;-62
2022/01/27 03:53:08;;;;;;;13.38;7.03;;;;;;;2.96;52.26;100445.66;3124666;28;20103;-62
2022/01/27 03:54:40;;;;;;;12.73;6.60;;;;;;;2.97;52.21;100443.94;3124328;28;20545;-62
2022/01/27 03:56:12;;;;;;;14.90;6.05;;;;;;;2.95;52.07;100448.22;3129768;28;20491;-62
2022/01/27 03:57:44;;;;;;;14.60;6.45;;;;;;;2.93;52.00;100448.25;3120186;28;20130;-62
2022/01/27 03:59:16;;;;;;;14.30;6.82;;;;;;;2.95;52.14;100448.22;3129176;28;20515;-62
2022/01/27 04:00:48;;;;;;;12.07;5.95;;;;;;;2.94;52.02;100443.97;3122675;28;20046;-62
2022/01/27 04:02:20;;;;;;;11.63;5.78;;;;;;;2.95;51.93;100448.22;3127759;28;20154;-62
2022/01/27 04:03:55;;;;;;;12.13;6.00;;;;;;;2.97;51.77;100449.09;3128541;28;20617;-62
2022/01/27 04:05:32;;;;;;;10.68;5.75;;;;;;;2.97;51.72;100452.50;3121172;28;20053;-62
2022/01/27 04:07:04;;;;;;;13.10;5.85;;;;;;;2.98;51.72;100450.78;3128319;28;21880;-63
2022/01/27 04:08:39;;;;;;;12.57;6.25;;;;;;;2.99;51.62;100447.38;3124881;28;20049;-63
2022/01/27 04:10:11;;;;;;;12.52;5.97;;;;;;;2.99;51.53;100452.53;3121075;28;20103;-61
2022/01/27 04:11:44;;;;;;;13.37;6.63;;;;;;;3.00;51.68;100449.06;3124618;28;20426;-61
2022/01/27 04:13:17;;;;;;;13.55;7.10;;;;;;;2.97;51.33;100446.50;3116574;28;20054;-61
2022/01/27 04:14:49;;;;;;;13.30;6.35;;;;;;;2.97;51.50;100455.09;3124274;28;20099;-61
2022/01/27 04:16:21;;;;;;;15.68;6.57;;;;;;;2.99;51.35;100454.22;3122491;28;20068;-61
2022/01/27 04:17:54;;;;;;;15.40;6.95;;;;;;;2.99;51.29;100461.94;3123376;28;20048;-61
2022/01/27 04:19:26;;;;;;;12.80;6.73;;;;;;;2.99;51.22;100464.50;3123597;28;20048;-61
2022/01/27 04:20:58;;;;;;;13.55;6.30;;;;;;;3.00;51.28;100458.53;3119353;28;20291;-63
2022/01/27 04:22:30;;;;;;;16.25;6.50;;;;;;;2.98;51.11;100461.09;3118327;28;20271;-62
2022/01/27 04:24:04;;;;;;;10.85;5.80;;;;;;;3.03;51.10;100459.34;3129564;28;20126;-62
2022/01/27 04:25:37;;;;;;;13.13;5.85;;;;;;;3.03;51.08;100466.22;3115166;28;20064;-62
2022/01/27 04:27:17;;;;;;;12.75;6.28;;;;;;;2.85;50.95;100434.56;3123990;28;20427;-62
2022/01/27 04:28:51;;;;;;;12.75;5.78;;;;;;;3.04;51.02;100471.34;3121202;28;20059;-62
2022/01/27 04:30:25;;;;;;;13.70;6.00;;;;;;;3.03;50.90;100469.66;3119652;28;20128;-64
2022/01/27 04:31:59;;;;;;;13.57;6.32;;;;;;;3.02;51.01;100473.09;3123053;28;20557;-62
2022/01/27 04:33:33;;;;;;;14.57;6.68;;;;;;;3.03;50.78;100473.94;3127096;28;20091;-62
2022/01/27 04:35:09;;;;;;;14.23;6.45;;;;;;;3.03;50.71;100464.50;3121994;28;20459;-62
2022/01/27 04:36:42;;;;;;;13.70;6.80;;;;;;;3.05;50.81;100474.81;3122218;28;20053;-62
2022/01/27 04:38:28;;;;;;;17.20;6.53;;;;;;;3.03;51.10;100471.38;3124709;28;20054;-62
2022/01/27 04:40:07;;;;;;;17.40;7.70;;;;;;;2.96;51.44;100478.25;3121417;28;20578;-62
2022/01/27 04:41:45;;;;;;;15.63;6.78;;;;;;;2.88;51.93;100485.13;3115186;28;20053;-62
2022/01/27 04:43:25;;;;;;;16.75;7.75;;;;;;;2.80;52.51;100490.28;3123184;28;20049;-62
2022/01/27 04:45:01;;;;;;;13.60;6.30;;;;;;;2.71;52.65;100491.16;3116704;28;20053;-61
2022/01/27 04:46:39;;;;;;;14.00;7.30;;;;;;;2.73;52.80;100493.75;3117787;28;20482;-61
2022/01/27 04:48:15;;;;;;;15.35;7.18;;;;;;;2.73;52.68;100492.03;3121407;28;20091;-61
2022/01/27 04:49:47;;;;;;;13.40;6.75;;;;;;;2.72;52.79;100499.72;3115274;28;20085;-61
2022/01/27 04:51:22;;;;;;;13.18;6.75;;;;;;;2.75;52.80;100494.59;3125062;28;20131;-61
2022/01/27 04:52:56;;;;;;;11.85;6.18;;;;;;;2.78;52.73;100488.56;3117586;28;20133;-61
2022/01/27 04:54:33;;;;;;;14.85;6.75;;;;;;;2.80;52.62;100497.16;3117833;28;20540;-62
2022/01/27 04:56:10;;;;;;;13.48;6.47;;;;;;;2.81;52.43;100494.59;3125357;28;20048;-62
2022/01/27 04:57:44;;;;;;;11.93;6.18;;;;;;;2.81;52.30;100501.44;3114870;28;20111;-63
2022/01/27 04:59:20;;;;;;;11.13;6.13;;;;;;;2.83;52.15;100507.44;3122833;28;20057;-62
2022/01/27 05:00:52;;;;;;;16.40;6.43;;;;;;;2.85;52.21;100498.88;3122515;28;20197;-63
2022/01/27 05:02:33;;;;;;;13.73;6.63;;;;;;;2.90;52.19;100504.88;3125318;28;20844;-62
2022/01/27 05:04:09;;;;;;;13.55;6.90;;;;;;;2.91;52.04;100505.72;3124658;28;20139;-62
2022/01/27 05:05:41;;;;;;;14.18;7.03;;;;;;;2.95;51.99;100512.56;3126374;28;20056;-61
2022/01/27 05:07:13;;;;;;;19.33;8.20;;;;;;;2.93;52.08;100509.16;3123720;28;20063;-60
2022/01/27 05:08:45;;;;;;;14.10;7.15;;;;;;;2.94;52.20;100509.13;3120988;28;20053;-60
2022/01/27 05:10:21;;;;;;;12.70;6.22;;;;;;;2.82;52.11;100501.44;3117743;28;20060;-60
2022/01/27 05:11:59;;;;;;;12.43;6.75;;;;;;;2.95;52.13;100515.97;3123274;28;20049;-63
2022/01/27 05:13:38;;;;;;;13.10;6.75;;;;;;;2.94;52.29;100521.13;3126113;28;20077;-61
2022/01/27 05:15:13;;;;;;;15.57;7.22;;;;;;;2.96;52.38;100528.00;3122545;28;20536;-61
2022/01/27 05:16:45;;;;;;;16.58;7.57;;;;;;;3.01;52.46;100527.13;3122519;28;20640;-61
2022/01/27 05:18:17;;;;;;;15.40;6.75;;;;;;;3.01;52.42;100527.13;3125542;28;20553;-61
2022/01/27 05:19:51;;;;;;;13.23;6.55;;;;;;;3.04;52.39;100534.81;3124082;28;20415;-61
2022/01/27 05:21:23;;;;;;;11.00;6.43;;;;;;;3.03;52.36;100533.97;3126591;28;20512;-61
2022/01/27 05:22:55;;;;;;;13.68;6.97;;;;;;;3.03;52.61;100528.81;3117860;28;20721;-62
2022/01/27 05:24:27;;;;;;;11.23;6.32;;;;;;;3.06;52.40;100528.81;3121669;28;20068;-61
2022/01/27 05:25:58;;;;;;;11.85;6.03;;;;;;;3.06;52.51;100531.41;3115501;28;20659;-61
2022/01/27 05:27:31;;;;;;;12.50;6.15;;;;;;;3.09;52.45;100536.53;3124067;28;20049;-62
2022/01/27 05:29:03;;;;;;;;;;;;;;;2.90;52.75;100534.88;3115055;28;20527;-64
2022/01/27 05:30:35;;;;;;;16.40;7.07;;;;;;;2.97;52.87;100527.13;3118968;28;19982;-62
2022/01/27 05:32:08;;;;;;;13.93;6.57;;;;;;;3.02;52.59;100529.69;3124608;28;20125;-62
2022/01/27 05:33:40;;;;;;;13.35;5.95;;;;;;;3.06;52.63;100525.41;3116866;28;20060;-63
2022/01/27 05:35:12;;;;;;;13.75;6.60;;;;;;;3.09;52.63;100530.53;3121780;28;20468;-63
2022/01/27 05:36:44;;;;;;;11.93;6.35;;;;;;;3.11;52.44;100528.81;3120784;28;20057;-62
2022/01/27 05:38:17;;;;;;;15.68;6.53;;;;;;;3.12;52.41;100525.38;3122735;28;20067;-63
2022/01/27 05:39:49;;;;;;;13.98;7.05;;;;;;;3.13;52.37;100532.22;3122576;28;20584;-63
2022/01/27 05:41:21;;;;;;;13.07;7.10;;;;;;;3.15;52.31;100533.94;3119894;28;20053;-62
2022/01/27 05:42:53;;;;;;;13.23;6.47;;;;;;;3.17;52.33;100528.81;3124474;28;20091;-63
2022/01/27 05:44:25;;;;;;;12.40;7.00;;;;;;;3.16;52.31;100527.06;3119015;28;20064;-63
2022/01/27 05:45:57;;;;;;;14.95;7.03;;;;;;;3.18;52.36;100538.22;3116696;28;20495;-62
2022/01/27 05:47:29;;;;;;;16.65;7.88;;;;;;;3.18;52.30;100536.50;3122651;28;20049;-62
2022/01/27 05:49:01;;;;;;;14.32;6.90;;;;;;;3.19;52.27;100538.22;3121120;28;20132;-62
2022/01/27 05:50:33;;;;;;;14.68;7.70;;;;;;;2.97;52.31;100501.41;3118474;28;20446;-63
2022/01/27 05:52:06;;;;;;;16.63;7.53;;;;;;;3.10;52.22;100520.22;3124158;28;20045;-62
2022/01/27 05:53:37;;;;;;;12.68;6.72;;;;;;;3.18;52.27;100536.50;3117606;28;20065;-62
2022/01/27 05:55:10;;;;;;;14.60;7.25;;;;;;;2.83;52.28;100477.41;3121832;28;20049;-62
2022/01/27 05:56:42;;;;;;;16.05;6.53;;;;;;;3.19;52.27;100537.34;3123745;28;20045;-62
2022/01/27 05:58:16;;;;;;;12.27;6.65;;;;;;;3.21;52.17;100540.78;3116515;28;20109;-62
2022/01/27 05:59:47;;;;;;;;;;;;;;;3.04;52.43;100545.13;3122610;28;20110;-61
2022/01/27 06:01:19;;;;;;;14.20;7.07;;;;;;;3.10;52.71;100547.69;3125891;28;19924;-61
2022/01/27 06:02:52;;;;;;;15.25;6.22;;;;;;;3.12;52.37;100548.53;3123128;28;20136;-62
2022/01/27 06:04:23;;;;;;;18.42;7.80;;;;;;;2.99;52.46;100524.56;3124724;28;20581;-62
2022/01/27 06:05:56;;;;;;;13.57;6.88;;;;;;;3.16;52.34;100547.66;3124093;28;20053;-62
2022/01/27 06:07:28;;;;;;;12.70;6.40;;;;;;;3.17;52.46;100551.97;3124012;28;20052;-63
2022/01/27 06:09:00;;;;;;;16.60;6.75;;;;;;;3.18;52.45;100559.66;3122353;28;20056;-62
2022/01/27 06:10:32;;;;;;;12.68;5.72;;;;;;;3.20;52.32;100559.69;3123732;28;20091;-61
2022/01/27 06:12:05;;;;;;;11.75;6.32;;;;;;;3.21;52.50;100557.94;3122353;28;20061;-61
2022/01/27 06:13:39;;;;;;;13.55;6.28;;;;;;;3.23;52.48;100553.66;3123435;28;20445;-61
2022/01/27 06:15:11;;;;;;;20.02;7.10;;;;;;;3.24;52.39;100561.38;3123528;28;20064;-61
2022/01/27 06:16:46;;;;;;;34.63;16.00;;;;;;;2.93;52.48;100511.72;3123070;28;20061;-62
2022/01/27 06:18:19;;;;;;;43.83;19.08;;;;;;;3.27;52.21;100556.22;3125786;28;20094;-61
2022/01/27 06:19:54;;;;;;;28.70;14.38;;;;;;;3.29;52.42;100551.91;3125331;28;20051;-61
2022/01/27 06:21:27;;;;;;;19.98;8.07;;;;;;;3.31;52.14;100560.50;3126862;28;20048;-61
2022/01/27 06:22:59;;;;;;;12.98;6.70;;;;;;;3.21;52.13;100538.22;3129695;28;20495;-62
2022/01/27 06:24:31;;;;;;;10.25;5.70;;;;;;;3.36;51.98;100556.16;3128222;28;20056;-62
2022/01/27 06:26:04;;;;;;;11.38;5.97;;;;;;;3.42;52.01;100560.44;3127854;28;20104;-61
2022/01/27 06:27:36;;;;;;;17.25;6.00;;;;;;;3.42;52.02;100551.00;3125386;28;20053;-61
2022/01/27 06:29:09;;;;;;;12.38;6.10;;;;;;;3.47;51.74;100556.16;3124046;28;20318;-61
2022/01/27 06:30:41;;;;;;;;;;;;;;;3.29;52.09;100559.63;3122029;28;20049;-61
2022/01/27 06:32:13;;;;;;;15.35;6.90;;;;;;;3.40;51.99;100559.59;3126571;28;19928;-62
2022/01/27 06:33:45;;;;;;;17.80;7.25;;;;;;;3.47;51.92;100558.72;3124221;28;20582;-62
2022/01/27 06:35:17;;;;;;;22.70;8.63;;;;;;;3.53;51.79;100561.25;3124323;28;20615;-61
2022/01/27 06:36:49;;;;;;;18.30;8.82;;;;;;;3.55;51.70;100559.56;3123395;28;20158;-62
2022/01/27 06:38:21;;;;;;;20.63;8.90;;;;;;;3.59;51.60;100563.81;3125226;28;20052;-62
2022/01/27 06:39:53;;;;;;;18.63;9.45;;;;;;;3.63;51.67;100564.66;3124991;28;20130;-62
2022/01/27 06:41:26;;;;;;;20.42;9.68;;;;;;;3.69;51.51;100568.91;3125273;28;20053;-61
2022/01/27 06:42:58;;;;;;;18.83;9.45;;;;;;;3.70;51.34;100565.47;3124416;28;20053;-61
2022/01/27 06:44:31;;;;;;;24.10;9.75;;;;;;;3.74;51.31;100572.34;3124974;28;20057;-61
2022/01/27 06:46:03;;;;;;;26.70;9.23;;;;;;;3.75;51.27;100567.16;3125309;28;20049;-61
2022/01/27 06:47:35;;;;;;;18.63;9.00;;;;;;;3.79;51.30;100568.88;3124902;28;20052;-61
2022/01/27 06:49:07;;;;;;;18.17;9.55;;;;;;;3.81;50.89;100585.16;3126346;28;20049;-61
2022/01/27 06:50:39;;;;;;;21.88;9.52;;;;;;;3.85;51.05;100580.88;3124349;28;20056;-61
2022/01/27 06:52:11;;;;;;;14.85;8.07;;;;;;;3.86;51.04;100575.69;3125018;28;20077;-61
2022/01/27 06:53:43;;;;;;;18.90;8.88;;;;;;;3.88;50.80;100576.56;3125858;28;20114;-61
2022/01/27 06:55:17;;;;;;;21.33;10.15;;;;;;;3.92;50.87;100576.53;3123825;28;20065;-61
2022/01/27 06:56:49;;;;;;;18.40;8.85;;;;;;;3.94;50.67;100582.56;3126101;28;20532;-61
2022/01/27 06:58:22;;;;;;;19.95;8.27;;;;;;;3.96;50.54;100584.22;3125760;28;20620;-61
2022/01/27 06:59:55;;;;;;;19.20;8.30;;;;;;;3.97;50.63;100580.81;3123178;28;20407;-61
2022/01/27 07:01:27;;;;;;;16.10;9.13;;;;;;;3.99;50.63;100580.78;3126246;28;20053;-61
2022/01/27 07:02:59;;;;;;;22.13;8.75;;;;;;;4.01;50.58;100584.22;3124259;28;20159;-62
2022/01/27 07:04:31;;;;;;;15.85;7.68;;;;;;;4.06;50.36;100585.06;3125685;28;20060;-61
2022/01/27 07:06:03;;;;;;;15.05;7.75;;;;;;;4.09;50.52;100578.16;3126815;28;20155;-60
2022/01/27 07:07:35;;;;;;;13.07;6.25;;;;;;;4.15;50.38;100584.13;3125871;28;20151;-61
2022/01/27 07:09:07;;;;;;;13.68;6.60;;;;;;;4.19;50.32;100576.34;3126428;28;20380;-61
2022/01/27 07:10:39;;;;;;;20.45;7.47;;;;;;;4.24;50.19;100584.94;3126638;28;20045;-61
2022/01/27 07:12:11;;;;;;;14.57;6.47;;;;;;;4.29;50.10;100583.19;3124013;28;20565;-61
2022/01/27 07:13:44;;;;;;;22.03;7.17;;;;;;;4.33;50.12;100590.00;3126902;28;20049;-61
2022/01/27 07:15:17;;;;;;;19.02;7.32;;;;;;;4.38;49.97;100591.69;3125883;28;20394;-61
2022/01/27 07:16:49;;;;;;;18.02;7.30;;;;;;;4.42;49.99;100586.53;3126165;28;20049;-61
2022/01/27 07:18:21;;;;;;;13.63;6.75;;;;;;;4.48;49.85;100598.50;3125700;28;20098;-61
2022/01/27 07:19:53;;;;;;;17.20;8.35;;;;;;;4.53;49.78;100592.47;3123329;28;20828;-61
2022/01/27 07:21:25;;;;;;;45.45;19.45;;;;;;;4.59;49.65;100593.28;3125933;28;20053;-62
2022/01/27 07:22:57;;;;;;;33.83;15.32;;;;;;;4.63;49.43;100595.81;3123834;28;20056;-61
2022/01/27 07:24:29;;;;;;;39.97;16.42;;;;;;;4.67;49.42;100599.22;3124201;28;20049;-61
2022/01/27 07:26:01;;;;;;;31.00;14.10;;;;;;;4.69;49.48;100588.03;3126764;28;20332;-61
2022/01/27 07:27:34;;;;;;;36.55;13.70;;;;;;;4.74;49.27;100595.72;3124267;28;20084;-61
2022/01/27 07:29:06;;;;;;;26.38;13.10;;;;;;;4.79;49.25;100600.00;3124803;28;20051;-60
2022/01/27 07:30:39;;;;;;;20.83;8.10;;;;;;;4.84;49.08;100596.50;3125947;28;20658;-61
2022/01/27 07:32:11;;;;;;;22.02;9.68;;;;;;;4.86;48.98;100603.38;3124539;28;20518;-61
2022/01/27 07:33:43;;;;;;;23.58;7.78;;;;;;;4.91;48.93;100599.03;3124739;28;20053;-61
2022/01/27 07:35:15;;;;;;;14.65;7.80;;;;;;;4.97;48.86;100592.94;3125383;28;20111;-60
2022/01/27 07:36:48;;;;;;;15.07;6.88;;;;;;;5.04;48.83;100596.31;3124258;28;20053;-61
2022/01/27 07:38:22;;;;;;;14.27;6.32;;;;;;;5.07;48.68;100591.13;3126821;28;20072;-61